sensor_id;sensor_type;location;lat;lon;timestamp;P1;durP1;ratioP1;P2;durP2;ratioP2
68870;SDS011;55906;52.278;6.808;2023-03-01T00:00:39;17.40;;;11.43;;
68870;SDS011;55906;52.278;6.808;2023-03-01T00:03:07;16.77;;;11.13;;
68870;SDS011;55906;52.278;6.808;2023-03-01T00:05:34;20.30;;;12.10;;
68870;SDS011;55906;52.278;6.808;2023-03-01T00:08:01;17.97;;;10.63;;
68870;SDS011;55906;52.278;6.808;2023-03-01T00:10:27;17.80;;;11.13;;
68870;SDS011;55906;52.278;6.808;2023-03-01T00:12:54;19.10;;;12.80;;
68870;SDS011;55906;52.278;6.808;2023-03-01T00:15:21;21.37;;;13.20;;
68870;SDS011;55906;52.278;6.808;2023-03-01T00:17:48;23.90;;;11.63;;
68870;SDS011;55906;52.278;6.808;2023-03-01T00:20:16;16.63;;;11.45;;
68870;SDS011;55906;52.278;6.808;2023-03-01T00:22:43;17.40;;;12.15;;
68870;SDS011;55906;52.278;6.808;2023-03-01T00:25:09;18.55;;;11.65;;
68870;SDS011;55906;52.278;6.808;2023-03-01T00:27:36;18.17;;;10.93;;
68870;SDS011;55906;52.278;6.808;2023-03-01T00:30:03;16.83;;;11.43;;
68870;SDS011;55906;52.278;6.808;2023-03-01T00:32:30;18.43;;;11.80;;
68870;SDS011;55906;52.278;6.808;2023-03-01T00:34:56;18.52;;;10.55;;
68870;SDS011;55906;52.278;6.808;2023-03-01T00:37:24;19.08;;;11.13;;
68870;SDS011;55906;52.278;6.808;2023-03-01T00:39:51;18.30;;;10.83;;
68870;SDS011;55906;52.278;6.808;2023-03-01T00:42:17;16.92;;;10.25;;
68870;SDS011;55906;52.278;6.808;2023-03-01T00:44:44;19.63;;;11.55;;
68870;SDS011;55906;52.278;6.808;2023-03-01T00:47:11;15.85;;;10.05;;
68870;SDS011;55906;52.278;6.808;2023-03-01T00:49:38;15.25;;;10.35;;
68870;SDS011;55906;52.278;6.808;2023-03-01T00:52:05;15.13;;;9.85;;
68870;SDS011;55906;52.278;6.808;2023-03-01T00:54:33;15.23;;;10.52;;
68870;SDS011;55906;52.278;6.808;2023-03-01T00:57:00;15.83;;;10.17;;
68870;SDS011;55906;52.278;6.808;2023-03-01T00:59:26;14.02;;;9.27;;
68870;SDS011;55906;52.278;6.808;2023-03-01T01:01:53;18.17;;;12.25;;
68870;SDS011;55906;52.278;6.808;2023-03-01T01:04:19;20.67;;;12.83;;
68870;SDS011;55906;52.278;6.808;2023-03-01T01:06:46;16.27;;;11.57;;
68870;SDS011;55906;52.278;6.808;2023-03-01T01:09:14;17.77;;;11.68;;
68870;SDS011;55906;52.278;6.808;2023-03-01T01:11:44;18.58;;;11.75;;
68870;SDS011;55906;52.278;6.808;2023-03-01T01:14:12;17.45;;;11.05;;
68870;SDS011;55906;52.278;6.808;2023-03-01T01:16:39;17.95;;;11.23;;
68870;SDS011;55906;52.278;6.808;2023-03-01T01:19:06;17.17;;;11.48;;
68870;SDS011;55906;52.278;6.808;2023-03-01T01:21:33;15.97;;;9.53;;
68870;SDS011;55906;52.278;6.808;2023-03-01T01:23:59;17.42;;;11.25;;
68870;SDS011;55906;52.278;6.808;2023-03-01T01:26:27;16.70;;;10.07;;
68870;SDS011;55906;52.278;6.808;2023-03-01T01:28:57;15.87;;;11.70;;
68870;SDS011;55906;52.278;6.808;2023-03-01T01:31:24;19.10;;;10.73;;
68870;SDS011;55906;52.278;6.808;2023-03-01T01:33:52;14.90;;;9.75;;
68870;SDS011;55906;52.278;6.808;2023-03-01T01:36:20;15.07;;;9.60;;
68870;SDS011;55906;52.278;6.808;2023-03-01T01:38:47;11.60;;;8.38;;
68870;SDS011;55906;52.278;6.808;2023-03-01T01:41:14;16.15;;;10.43;;
68870;SDS011;55906;52.278;6.808;2023-03-01T01:43:41;13.27;;;9.88;;
68870;SDS011;55906;52.278;6.808;2023-03-01T01:46:13;14.77;;;9.43;;
68870;SDS011;55906;52.278;6.808;2023-03-01T01:48:46;16.75;;;10.30;;
68870;SDS011;55906;52.278;6.808;2023-03-01T01:51:17;15.32;;;9.40;;
68870;SDS011;55906;52.278;6.808;2023-03-01T01:53:46;13.93;;;9.60;;
68870;SDS011;55906;52.278;6.808;2023-03-01T01:56:15;12.57;;;9.50;;
68870;SDS011;55906;52.278;6.808;2023-03-01T01:58:44;14.27;;;10.02;;
68870;SDS011;55906;52.278;6.808;2023-03-01T02:01:13;15.98;;;9.68;;
68870;SDS011;55906;52.278;6.808;2023-03-01T02:03:40;16.20;;;9.88;;
68870;SDS011;55906;52.278;6.808;2023-03-01T02:06:15;13.23;;;8.95;;
68870;SDS011;55906;52.278;6.808;2023-03-01T02:08:46;13.70;;;9.25;;
68870;SDS011;55906;52.278;6.808;2023-03-01T02:11:15;13.83;;;8.63;;
68870;SDS011;55906;52.278;6.808;2023-03-01T02:13:44;13.20;;;8.30;;
68870;SDS011;55906;52.278;6.808;2023-03-01T02:16:15;12.30;;;8.18;;
68870;SDS011;55906;52.278;6.808;2023-03-01T02:18:42;12.97;;;8.90;;
68870;SDS011;55906;52.278;6.808;2023-03-01T02:21:17;15.52;;;8.75;;
68870;SDS011;55906;52.278;6.808;2023-03-01T02:23:55;14.73;;;8.90;;
68870;SDS011;55906;52.278;6.808;2023-03-01T02:26:25;12.32;;;8.15;;
68870;SDS011;55906;52.278;6.808;2023-03-01T02:38:49;11.53;;;8.23;;
68870;SDS011;55906;52.278;6.808;2023-03-01T02:41:19;11.05;;;7.68;;
68870;SDS011;55906;52.278;6.808;2023-03-01T02:43:47;11.40;;;8.10;;
68870;SDS011;55906;52.278;6.808;2023-03-01T02:46:14;11.37;;;8.00;;
68870;SDS011;55906;52.278;6.808;2023-03-01T02:48:43;12.20;;;8.38;;
68870;SDS011;55906;52.278;6.808;2023-03-01T02:51:18;13.93;;;8.23;;
68870;SDS011;55906;52.278;6.808;2023-03-01T02:54:00;11.40;;;8.40;;
68870;SDS011;55906;52.278;6.808;2023-03-01T02:56:36;12.80;;;8.00;;
68870;SDS011;55906;52.278;6.808;2023-03-01T02:59:03;12.00;;;8.20;;
68870;SDS011;55906;52.278;6.808;2023-03-01T03:01:30;10.40;;;7.03;;
68870;SDS011;55906;52.278;6.808;2023-03-01T03:04:03;10.17;;;7.43;;
68870;SDS011;55906;52.278;6.808;2023-03-01T03:06:31;10.98;;;7.18;;
68870;SDS011;55906;52.278;6.808;2023-03-01T03:08:58;10.93;;;7.53;;
68870;SDS011;55906;52.278;6.808;2023-03-01T03:11:25;11.50;;;7.67;;
68870;SDS011;55906;52.278;6.808;2023-03-01T03:13:52;11.13;;;6.90;;
68870;SDS011;55906;52.278;6.808;2023-03-01T03:16:19;9.45;;;6.68;;
68870;SDS011;55906;52.278;6.808;2023-03-01T03:18:46;10.05;;;7.32;;
68870;SDS011;55906;52.278;6.808;2023-03-01T03:21:13;9.27;;;6.65;;
68870;SDS011;55906;52.278;6.808;2023-03-01T03:23:42;11.30;;;7.40;;
68870;SDS011;55906;52.278;6.808;2023-03-01T03:26:09;9.38;;;7.28;;
68870;SDS011;55906;52.278;6.808;2023-03-01T03:28:40;9.97;;;6.87;;
68870;SDS011;55906;52.278;6.808;2023-03-01T03:31:07;8.65;;;7.13;;
68870;SDS011;55906;52.278;6.808;2023-03-01T03:33:34;11.85;;;8.15;;
68870;SDS011;55906;52.278;6.808;2023-03-01T03:36:02;13.30;;;7.87;;
68870;SDS011;55906;52.278;6.808;2023-03-01T03:38:29;9.85;;;7.28;;
68870;SDS011;55906;52.278;6.808;2023-03-01T03:41:01;10.13;;;7.30;;
68870;SDS011;55906;52.278;6.808;2023-03-01T03:43:29;10.75;;;7.82;;
68870;SDS011;55906;52.278;6.808;2023-03-01T03:45:57;11.38;;;7.55;;
68870;SDS011;55906;52.278;6.808;2023-03-01T03:48:24;9.10;;;7.07;;
68870;SDS011;55906;52.278;6.808;2023-03-01T03:50:52;9.35;;;6.47;;
68870;SDS011;55906;52.278;6.808;2023-03-01T03:53:20;8.80;;;6.97;;
68870;SDS011;55906;52.278;6.808;2023-03-01T03:55:48;10.40;;;7.13;;
68870;SDS011;55906;52.278;6.808;2023-03-01T03:58:18;9.40;;;6.85;;
68870;SDS011;55906;52.278;6.808;2023-03-01T04:00:46;10.47;;;7.80;;
68870;SDS011;55906;52.278;6.808;2023-03-01T04:03:15;10.60;;;7.75;;
68870;SDS011;55906;52.278;6.808;2023-03-01T04:05:44;10.55;;;7.32;;
68870;SDS011;55906;52.278;6.808;2023-03-01T04:08:11;8.32;;;7.03;;
68870;SDS011;55906;52.278;6.808;2023-03-01T04:10:38;9.52;;;7.20;;
68870;SDS011;55906;52.278;6.808;2023-03-01T04:13:06;11.80;;;7.47;;
68870;SDS011;55906;52.278;6.808;2023-03-01T04:15:36;10.63;;;7.68;;
68870;SDS011;55906;52.278;6.808;2023-03-01T04:18:03;9.10;;;7.07;;
68870;SDS011;55906;52.278;6.808;2023-03-01T04:20:32;9.68;;;7.22;;
68870;SDS011;55906;52.278;6.808;2023-03-01T04:23:01;10.80;;;7.20;;
68870;SDS011;55906;52.278;6.808;2023-03-01T04:25:37;12.03;;;7.00;;
68870;SDS011;55906;52.278;6.808;2023-03-01T04:28:04;9.23;;;7.18;;
68870;SDS011;55906;52.278;6.808;2023-03-01T04:30:31;9.02;;;6.75;;
68870;SDS011;55906;52.278;6.808;2023-03-01T04:33:02;9.32;;;6.82;;
68870;SDS011;55906;52.278;6.808;2023-03-01T04:35:30;9.80;;;6.63;;
68870;SDS011;55906;52.278;6.808;2023-03-01T04:37:56;11.40;;;7.07;;
68870;SDS011;55906;52.278;6.808;2023-03-01T04:40:23;9.13;;;7.10;;
68870;SDS011;55906;52.278;6.808;2023-03-01T04:42:50;9.07;;;6.80;;
68870;SDS011;55906;52.278;6.808;2023-03-01T04:45:17;10.25;;;7.07;;
68870;SDS011;55906;52.278;6.808;2023-03-01T04:47:45;9.25;;;6.97;;
68870;SDS011;55906;52.278;6.808;2023-03-01T04:50:14;9.83;;;7.50;;
68870;SDS011;55906;52.278;6.808;2023-03-01T04:52:45;9.50;;;7.20;;
68870;SDS011;55906;52.278;6.808;2023-03-01T04:55:13;9.82;;;7.78;;
68870;SDS011;55906;52.278;6.808;2023-03-01T04:57:40;9.40;;;7.70;;
68870;SDS011;55906;52.278;6.808;2023-03-01T05:00:07;8.90;;;6.30;;
68870;SDS011;55906;52.278;6.808;2023-03-01T05:02:47;8.18;;;6.85;;
68870;SDS011;55906;52.278;6.808;2023-03-01T05:05:19;9.07;;;6.57;;
68870;SDS011;55906;52.278;6.808;2023-03-01T05:07:50;9.40;;;6.43;;
68870;SDS011;55906;52.278;6.808;2023-03-01T05:10:17;8.45;;;7.00;;
68870;SDS011;55906;52.278;6.808;2023-03-01T05:12:44;9.40;;;6.75;;
68870;SDS011;55906;52.278;6.808;2023-03-01T05:15:11;9.77;;;6.60;;
68870;SDS011;55906;52.278;6.808;2023-03-01T05:17:39;9.30;;;6.50;;
68870;SDS011;55906;52.278;6.808;2023-03-01T05:20:06;9.38;;;7.00;;
68870;SDS011;55906;52.278;6.808;2023-03-01T05:22:36;9.98;;;7.40;;
68870;SDS011;55906;52.278;6.808;2023-03-01T05:25:03;9.35;;;6.65;;
68870;SDS011;55906;52.278;6.808;2023-03-01T05:27:30;9.75;;;7.93;;
68870;SDS011;55906;52.278;6.808;2023-03-01T05:29:57;8.80;;;7.53;;
68870;SDS011;55906;52.278;6.808;2023-03-01T05:32:23;8.20;;;6.30;;
68870;SDS011;55906;52.278;6.808;2023-03-01T05:34:50;8.85;;;6.90;;
68870;SDS011;55906;52.278;6.808;2023-03-01T05:37:17;13.15;;;8.32;;
68870;SDS011;55906;52.278;6.808;2023-03-01T05:39:45;9.83;;;7.47;;
68870;SDS011;55906;52.278;6.808;2023-03-01T05:42:15;9.45;;;7.30;;
68870;SDS011;55906;52.278;6.808;2023-03-01T05:44:42;10.30;;;6.55;;
68870;SDS011;55906;52.278;6.808;2023-03-01T05:47:08;10.48;;;7.68;;
68870;SDS011;55906;52.278;6.808;2023-03-01T05:49:35;11.63;;;7.13;;
68870;SDS011;55906;52.278;6.808;2023-03-01T05:52:01;10.05;;;8.20;;
68870;SDS011;55906;52.278;6.808;2023-03-01T05:54:28;9.43;;;7.05;;
68870;SDS011;55906;52.278;6.808;2023-03-01T05:56:56;10.70;;;7.47;;
68870;SDS011;55906;52.278;6.808;2023-03-01T05:59:22;13.38;;;7.30;;
68870;SDS011;55906;52.278;6.808;2023-03-01T06:01:49;10.32;;;7.40;;
68870;SDS011;55906;52.278;6.808;2023-03-01T06:04:16;13.30;;;8.33;;
68870;SDS011;55906;52.278;6.808;2023-03-01T06:06:42;10.82;;;7.97;;
68870;SDS011;55906;52.278;6.808;2023-03-01T06:09:09;10.13;;;7.07;;
68870;SDS011;55906;52.278;6.808;2023-03-01T06:11:36;9.07;;;8.02;;
68870;SDS011;55906;52.278;6.808;2023-03-01T06:14:05;9.13;;;7.65;;
68870;SDS011;55906;52.278;6.808;2023-03-01T06:16:32;9.57;;;6.47;;
68870;SDS011;55906;52.278;6.808;2023-03-01T06:18:59;13.40;;;8.32;;
68870;SDS011;55906;52.278;6.808;2023-03-01T06:21:26;9.90;;;6.80;;
68870;SDS011;55906;52.278;6.808;2023-03-01T06:23:52;10.40;;;7.63;;
68870;SDS011;55906;52.278;6.808;2023-03-01T06:26:19;11.88;;;7.25;;
68870;SDS011;55906;52.278;6.808;2023-03-01T06:28:46;10.53;;;7.90;;
68870;SDS011;55906;52.278;6.808;2023-03-01T06:31:14;10.27;;;7.60;;
68870;SDS011;55906;52.278;6.808;2023-03-01T06:33:40;9.38;;;7.35;;
68870;SDS011;55906;52.278;6.808;2023-03-01T06:36:07;11.88;;;8.02;;
68870;SDS011;55906;52.278;6.808;2023-03-01T06:38:35;11.23;;;8.52;;
68870;SDS011;55906;52.278;6.808;2023-03-01T06:41:01;10.60;;;8.02;;
68870;SDS011;55906;52.278;6.808;2023-03-01T06:43:28;10.45;;;7.93;;
68870;SDS011;55906;52.278;6.808;2023-03-01T06:45:55;10.60;;;8.53;;
68870;SDS011;55906;52.278;6.808;2023-03-01T06:48:23;13.70;;;8.27;;
68870;SDS011;55906;52.278;6.808;2023-03-01T06:50:49;12.18;;;8.82;;
68870;SDS011;55906;52.278;6.808;2023-03-01T06:53:16;13.60;;;9.23;;
68870;SDS011;55906;52.278;6.808;2023-03-01T06:55:42;13.35;;;8.85;;
68870;SDS011;55906;52.278;6.808;2023-03-01T06:58:09;12.82;;;9.63;;
68870;SDS011;55906;52.278;6.808;2023-03-01T07:00:36;12.40;;;8.80;;
68870;SDS011;55906;52.278;6.808;2023-03-01T07:03:05;11.35;;;8.95;;
68870;SDS011;55906;52.278;6.808;2023-03-01T07:05:34;15.00;;;10.02;;
68870;SDS011;55906;52.278;6.808;2023-03-01T07:08:00;12.95;;;8.85;;
68870;SDS011;55906;52.278;6.808;2023-03-01T07:10:27;12.67;;;8.63;;
68870;SDS011;55906;52.278;6.808;2023-03-01T07:12:54;10.32;;;8.45;;
68870;SDS011;55906;52.278;6.808;2023-03-01T07:15:21;11.23;;;8.40;;
68870;SDS011;55906;52.278;6.808;2023-03-01T07:17:48;16.43;;;9.60;;
68870;SDS011;55906;52.278;6.808;2023-03-01T07:20:16;11.23;;;8.70;;
68870;SDS011;55906;52.278;6.808;2023-03-01T07:22:44;11.75;;;9.25;;
68870;SDS011;55906;52.278;6.808;2023-03-01T07:25:11;10.35;;;8.70;;
68870;SDS011;55906;52.278;6.808;2023-03-01T07:27:37;10.05;;;7.15;;
68870;SDS011;55906;52.278;6.808;2023-03-01T07:30:04;8.98;;;7.30;;
68870;SDS011;55906;52.278;6.808;2023-03-01T07:32:32;11.48;;;7.75;;
68870;SDS011;55906;52.278;6.808;2023-03-01T07:34:59;10.57;;;8.93;;
68870;SDS011;55906;52.278;6.808;2023-03-01T07:37:25;9.55;;;7.38;;
68870;SDS011;55906;52.278;6.808;2023-03-01T07:39:53;10.45;;;7.80;;
68870;SDS011;55906;52.278;6.808;2023-03-01T07:42:20;14.07;;;8.67;;
68870;SDS011;55906;52.278;6.808;2023-03-01T07:44:47;12.27;;;9.13;;
68870;SDS011;55906;52.278;6.808;2023-03-01T07:47:13;14.13;;;10.57;;
68870;SDS011;55906;52.278;6.808;2023-03-01T07:49:40;12.70;;;9.40;;
68870;SDS011;55906;52.278;6.808;2023-03-01T07:52:07;14.88;;;8.98;;
68870;SDS011;55906;52.278;6.808;2023-03-01T07:54:36;13.10;;;9.43;;
68870;SDS011;55906;52.278;6.808;2023-03-01T07:57:04;11.95;;;8.38;;
68870;SDS011;55906;52.278;6.808;2023-03-01T07:59:30;12.50;;;9.50;;
68870;SDS011;55906;52.278;6.808;2023-03-01T08:01:57;13.57;;;9.25;;
68870;SDS011;55906;52.278;6.808;2023-03-01T08:04:24;12.90;;;9.30;;
68870;SDS011;55906;52.278;6.808;2023-03-01T08:06:51;10.35;;;6.90;;
68870;SDS011;55906;52.278;6.808;2023-03-01T08:09:18;15.17;;;8.27;;
68870;SDS011;55906;52.278;6.808;2023-03-01T08:11:45;10.57;;;8.32;;
68870;SDS011;55906;52.278;6.808;2023-03-01T08:14:13;9.13;;;7.40;;
68870;SDS011;55906;52.278;6.808;2023-03-01T08:16:39;8.35;;;6.63;;
68870;SDS011;55906;52.278;6.808;2023-03-01T08:19:07;8.60;;;6.53;;
68870;SDS011;55906;52.278;6.808;2023-03-01T08:21:35;9.23;;;6.57;;
68870;SDS011;55906;52.278;6.808;2023-03-01T08:24:02;9.43;;;6.35;;
68870;SDS011;55906;52.278;6.808;2023-03-01T08:26:29;10.43;;;7.53;;
68870;SDS011;55906;52.278;6.808;2023-03-01T08:28:56;21.77;;;12.88;;
68870;SDS011;55906;52.278;6.808;2023-03-01T08:31:25;16.08;;;10.15;;
68870;SDS011;55906;52.278;6.808;2023-03-01T08:33:55;11.87;;;7.57;;
68870;SDS011;55906;52.278;6.808;2023-03-01T08:36:23;9.65;;;6.50;;
68870;SDS011;55906;52.278;6.808;2023-03-01T08:38:51;9.55;;;6.28;;
68870;SDS011;55906;52.278;6.808;2023-03-01T08:41:18;9.45;;;6.85;;
68870;SDS011;55906;52.278;6.808;2023-03-01T08:43:45;8.20;;;5.85;;
68870;SDS011;55906;52.278;6.808;2023-03-01T08:46:12;7.87;;;5.57;;
68870;SDS011;55906;52.278;6.808;2023-03-01T08:48:41;9.27;;;7.22;;
68870;SDS011;55906;52.278;6.808;2023-03-01T08:51:08;8.52;;;6.15;;
68870;SDS011;55906;52.278;6.808;2023-03-01T08:53:36;9.93;;;5.65;;
68870;SDS011;55906;52.278;6.808;2023-03-01T08:56:03;7.60;;;5.45;;
68870;SDS011;55906;52.278;6.808;2023-03-01T08:58:30;7.77;;;6.13;;
68870;SDS011;55906;52.278;6.808;2023-03-01T09:00:57;6.90;;;5.05;;
68870;SDS011;55906;52.278;6.808;2023-03-01T09:03:24;7.43;;;5.10;;
68870;SDS011;55906;52.278;6.808;2023-03-01T09:05:52;7.68;;;5.55;;
68870;SDS011;55906;52.278;6.808;2023-03-01T09:08:25;9.07;;;6.07;;
68870;SDS011;55906;52.278;6.808;2023-03-01T09:10:52;6.57;;;4.90;;
68870;SDS011;55906;52.278;6.808;2023-03-01T09:13:19;6.28;;;5.07;;
68870;SDS011;55906;52.278;6.808;2023-03-01T09:15:45;6.50;;;4.93;;
68870;SDS011;55906;52.278;6.808;2023-03-01T09:18:12;8.93;;;5.53;;
68870;SDS011;55906;52.278;6.808;2023-03-01T09:20:38;8.02;;;5.28;;
68870;SDS011;55906;52.278;6.808;2023-03-01T09:23:06;6.87;;;4.83;;
68870;SDS011;55906;52.278;6.808;2023-03-01T09:25:33;9.40;;;6.10;;
68870;SDS011;55906;52.278;6.808;2023-03-01T09:28:00;9.15;;;6.22;;
68870;SDS011;55906;52.278;6.808;2023-03-01T09:30:27;8.93;;;5.95;;
68870;SDS011;55906;52.278;6.808;2023-03-01T09:32:55;9.57;;;4.97;;
68870;SDS011;55906;52.278;6.808;2023-03-01T09:35:22;6.60;;;4.70;;
68870;SDS011;55906;52.278;6.808;2023-03-01T09:37:49;7.15;;;4.18;;
68870;SDS011;55906;52.278;6.808;2023-03-01T09:40:18;7.15;;;4.60;;
68870;SDS011;55906;52.278;6.808;2023-03-01T09:42:49;7.07;;;3.90;;
68870;SDS011;55906;52.278;6.808;2023-03-01T09:45:23;8.35;;;5.35;;
68870;SDS011;55906;52.278;6.808;2023-03-01T09:47:59;7.37;;;4.90;;
68870;SDS011;55906;52.278;6.808;2023-03-01T09:50:28;6.70;;;4.22;;
68870;SDS011;55906;52.278;6.808;2023-03-01T09:53:00;6.95;;;4.72;;
68870;SDS011;55906;52.278;6.808;2023-03-01T09:55:31;8.85;;;5.60;;
68870;SDS011;55906;52.278;6.808;2023-03-01T09:58:05;7.28;;;5.07;;
68870;SDS011;55906;52.278;6.808;2023-03-01T10:00:46;7.13;;;4.67;;
68870;SDS011;55906;52.278;6.808;2023-03-01T10:03:16;7.97;;;5.28;;
68870;SDS011;55906;52.278;6.808;2023-03-01T10:05:53;10.50;;;5.40;;
68870;SDS011;55906;52.278;6.808;2023-03-01T10:08:30;7.30;;;4.75;;
68870;SDS011;55906;52.278;6.808;2023-03-01T10:11:05;9.43;;;5.20;;
68870;SDS011;55906;52.278;6.808;2023-03-01T10:13:45;7.83;;;4.70;;
68870;SDS011;55906;52.278;6.808;2023-03-01T10:16:20;6.30;;;4.38;;
68870;SDS011;55906;52.278;6.808;2023-03-01T10:18:51;7.70;;;5.30;;
68870;SDS011;55906;52.278;6.808;2023-03-01T10:21:21;7.07;;;5.05;;
68870;SDS011;55906;52.278;6.808;2023-03-01T10:23:49;8.13;;;5.38;;
68870;SDS011;55906;52.278;6.808;2023-03-01T10:26:23;10.20;;;6.33;;
68870;SDS011;55906;52.278;6.808;2023-03-01T10:29:02;9.90;;;6.75;;
68870;SDS011;55906;52.278;6.808;2023-03-01T10:31:36;8.50;;;5.95;;
68870;SDS011;55906;52.278;6.808;2023-03-01T10:34:08;7.40;;;4.70;;
68870;SDS011;55906;52.278;6.808;2023-03-01T10:36:38;8.07;;;4.97;;
68870;SDS011;55906;52.278;6.808;2023-03-01T10:39:11;8.10;;;4.97;;
68870;SDS011;55906;52.278;6.808;2023-03-01T10:41:51;7.70;;;5.63;;
68870;SDS011;55906;52.278;6.808;2023-03-01T10:47:13;8.45;;;5.07;;
68870;SDS011;55906;52.278;6.808;2023-03-01T10:49:58;7.07;;;4.40;;
68870;SDS011;55906;52.278;6.808;2023-03-01T10:52:27;6.90;;;4.43;;
68870;SDS011;55906;52.278;6.808;2023-03-01T10:54:57;8.23;;;5.45;;
68870;SDS011;55906;52.278;6.808;2023-03-01T11:00:22;9.40;;;5.50;;
68870;SDS011;55906;52.278;6.808;2023-03-01T11:02:51;6.53;;;4.65;;
68870;SDS011;55906;52.278;6.808;2023-03-01T11:05:29;7.77;;;5.30;;
68870;SDS011;55906;52.278;6.808;2023-03-01T11:07:59;5.78;;;4.40;;
68870;SDS011;55906;52.278;6.808;2023-03-01T11:10:28;7.85;;;5.55;;
68870;SDS011;55906;52.278;6.808;2023-03-01T11:13:07;8.57;;;5.43;;
68870;SDS011;55906;52.278;6.808;2023-03-01T11:15:39;10.18;;;5.15;;
68870;SDS011;55906;52.278;6.808;2023-03-01T11:18:05;8.20;;;4.60;;
68870;SDS011;55906;52.278;6.808;2023-03-01T11:20:45;8.93;;;5.00;;
68870;SDS011;55906;52.278;6.808;2023-03-01T11:23:13;7.07;;;4.93;;
68870;SDS011;55906;52.278;6.808;2023-03-01T11:25:42;6.93;;;5.03;;
68870;SDS011;55906;52.278;6.808;2023-03-01T11:28:12;7.15;;;4.63;;
68870;SDS011;55906;52.278;6.808;2023-03-01T11:30:44;8.87;;;5.87;;
68870;SDS011;55906;52.278;6.808;2023-03-01T11:33:20;7.15;;;4.88;;
68870;SDS011;55906;52.278;6.808;2023-03-01T11:36:00;7.22;;;4.75;;
68870;SDS011;55906;52.278;6.808;2023-03-01T11:38:29;7.32;;;5.03;;
68870;SDS011;55906;52.278;6.808;2023-03-01T11:41:01;6.97;;;4.70;;
68870;SDS011;55906;52.278;6.808;2023-03-01T11:43:35;6.50;;;4.70;;
68870;SDS011;55906;52.278;6.808;2023-03-01T11:46:28;6.85;;;4.25;;
68870;SDS011;55906;52.278;6.808;2023-03-01T11:49:07;8.40;;;4.80;;
68870;SDS011;55906;52.278;6.808;2023-03-01T11:51:47;6.25;;;4.30;;
68870;SDS011;55906;52.278;6.808;2023-03-01T11:54:24;6.65;;;5.25;;
68870;SDS011;55906;52.278;6.808;2023-03-01T11:56:57;7.37;;;4.90;;
68870;SDS011;55906;52.278;6.808;2023-03-01T11:59:44;13.15;;;7.68;;
68870;SDS011;55906;52.278;6.808;2023-03-01T12:02:36;13.23;;;7.97;;
68870;SDS011;55906;52.278;6.808;2023-03-01T12:05:26;8.38;;;5.07;;
68870;SDS011;55906;52.278;6.808;2023-03-01T12:08:24;7.78;;;5.80;;
68870;SDS011;55906;52.278;6.808;2023-03-01T12:11:01;6.40;;;4.30;;
68870;SDS011;55906;52.278;6.808;2023-03-01T12:16:44;7.50;;;4.22;;
68870;SDS011;55906;52.278;6.808;2023-03-01T12:19:27;6.60;;;4.28;;
68870;SDS011;55906;52.278;6.808;2023-03-01T12:22:15;7.47;;;4.75;;
68870;SDS011;55906;52.278;6.808;2023-03-01T12:24:56;6.03;;;4.10;;
68870;SDS011;55906;52.278;6.808;2023-03-01T12:27:44;5.93;;;3.35;;
68870;SDS011;55906;52.278;6.808;2023-03-01T12:30:29;5.72;;;3.47;;
68870;SDS011;55906;52.278;6.808;2023-03-01T12:33:09;7.68;;;4.32;;
68870;SDS011;55906;52.278;6.808;2023-03-01T12:35:52;8.85;;;5.30;;
68870;SDS011;55906;52.278;6.808;2023-03-01T12:38:37;6.47;;;3.97;;
68870;SDS011;55906;52.278;6.808;2023-03-01T12:41:27;7.38;;;4.68;;
68870;SDS011;55906;52.278;6.808;2023-03-01T12:44:23;8.10;;;5.43;;
68870;SDS011;55906;52.278;6.808;2023-03-01T12:47:07;8.25;;;5.28;;
68870;SDS011;55906;52.278;6.808;2023-03-01T12:49:46;8.20;;;3.72;;
68870;SDS011;55906;52.278;6.808;2023-03-01T12:52:19;6.60;;;4.23;;
68870;SDS011;55906;52.278;6.808;2023-03-01T12:54:52;5.80;;;3.90;;
68870;SDS011;55906;52.278;6.808;2023-03-01T12:57:24;5.78;;;3.95;;
68870;SDS011;55906;52.278;6.808;2023-03-01T13:00:04;8.18;;;3.90;;
68870;SDS011;55906;52.278;6.808;2023-03-01T13:02:44;6.85;;;4.20;;
68870;SDS011;55906;52.278;6.808;2023-03-01T13:05:22;9.00;;;4.50;;
68870;SDS011;55906;52.278;6.808;2023-03-01T13:07:57;5.97;;;3.72;;
68870;SDS011;55906;52.278;6.808;2023-03-01T13:10:30;7.10;;;4.07;;
68870;SDS011;55906;52.278;6.808;2023-03-01T13:13:02;6.15;;;3.42;;
68870;SDS011;55906;52.278;6.808;2023-03-01T13:15:37;5.60;;;3.50;;
68870;SDS011;55906;52.278;6.808;2023-03-01T13:18:11;6.17;;;3.10;;
68870;SDS011;55906;52.278;6.808;2023-03-01T13:20:57;4.55;;;2.60;;
68870;SDS011;55906;52.278;6.808;2023-03-01T13:23:26;5.15;;;3.03;;
68870;SDS011;55906;52.278;6.808;2023-03-01T13:28:47;6.90;;;3.67;;
68870;SDS011;55906;52.278;6.808;2023-03-01T13:37:23;5.68;;;3.10;;
68870;SDS011;55906;52.278;6.808;2023-03-01T13:39:54;6.25;;;3.00;;
68870;SDS011;55906;52.278;6.808;2023-03-01T13:42:36;6.25;;;3.03;;
68870;SDS011;55906;52.278;6.808;2023-03-01T13:45:16;5.97;;;3.30;;
68870;SDS011;55906;52.278;6.808;2023-03-01T13:47:47;9.93;;;5.47;;
68870;SDS011;55906;52.278;6.808;2023-03-01T13:50:19;8.50;;;4.72;;
68870;SDS011;55906;52.278;6.808;2023-03-01T13:52:52;6.95;;;3.88;;
68870;SDS011;55906;52.278;6.808;2023-03-01T13:55:23;6.10;;;3.42;;
68870;SDS011;55906;52.278;6.808;2023-03-01T13:57:53;7.73;;;4.50;;
68870;SDS011;55906;52.278;6.808;2023-03-01T14:03:11;5.75;;;3.60;;
68870;SDS011;55906;52.278;6.808;2023-03-01T14:05:41;5.57;;;3.10;;
68870;SDS011;55906;52.278;6.808;2023-03-01T14:08:19;4.80;;;2.70;;
68870;SDS011;55906;52.278;6.808;2023-03-01T14:10:58;6.73;;;3.47;;
68870;SDS011;55906;52.278;6.808;2023-03-01T14:13:48;5.63;;;3.28;;
68870;SDS011;55906;52.278;6.808;2023-03-01T14:16:39;5.32;;;3.03;;
68870;SDS011;55906;52.278;6.808;2023-03-01T14:19:16;6.57;;;3.58;;
68870;SDS011;55906;52.278;6.808;2023-03-01T14:21:46;5.35;;;3.40;;
68870;SDS011;55906;52.278;6.808;2023-03-01T14:24:27;9.00;;;3.10;;
68870;SDS011;55906;52.278;6.808;2023-03-01T14:26:57;5.28;;;3.13;;
68870;SDS011;55906;52.278;6.808;2023-03-01T14:29:25;5.00;;;3.13;;
68870;SDS011;55906;52.278;6.808;2023-03-01T14:31:53;4.38;;;2.65;;
68870;SDS011;55906;52.278;6.808;2023-03-01T14:34:20;4.63;;;2.60;;
68870;SDS011;55906;52.278;6.808;2023-03-01T14:36:48;4.80;;;2.50;;
68870;SDS011;55906;52.278;6.808;2023-03-01T14:39:20;4.45;;;2.30;;
68870;SDS011;55906;52.278;6.808;2023-03-01T14:41:51;6.05;;;2.72;;
68870;SDS011;55906;52.278;6.808;2023-03-01T14:44:19;5.65;;;2.90;;
68870;SDS011;55906;52.278;6.808;2023-03-01T14:46:51;4.40;;;2.45;;
68870;SDS011;55906;52.278;6.808;2023-03-01T14:49:20;5.47;;;2.50;;
68870;SDS011;55906;52.278;6.808;2023-03-01T14:51:51;4.38;;;2.42;;
68870;SDS011;55906;52.278;6.808;2023-03-01T14:54:23;5.80;;;2.63;;
68870;SDS011;55906;52.278;6.808;2023-03-01T14:56:52;6.43;;;3.08;;
68870;SDS011;55906;52.278;6.808;2023-03-01T14:59:21;4.57;;;2.65;;
68870;SDS011;55906;52.278;6.808;2023-03-01T15:01:49;5.20;;;2.60;;
68870;SDS011;55906;52.278;6.808;2023-03-01T15:04:17;5.47;;;2.75;;
68870;SDS011;55906;52.278;6.808;2023-03-01T15:06:44;5.03;;;2.65;;
68870;SDS011;55906;52.278;6.808;2023-03-01T15:09:13;4.97;;;2.92;;
68870;SDS011;55906;52.278;6.808;2023-03-01T15:11:43;5.47;;;3.30;;
68870;SDS011;55906;52.278;6.808;2023-03-01T15:14:26;6.20;;;3.13;;
68870;SDS011;55906;52.278;6.808;2023-03-01T15:16:54;5.53;;;2.95;;
68870;SDS011;55906;52.278;6.808;2023-03-01T15:19:21;4.88;;;3.00;;
68870;SDS011;55906;52.278;6.808;2023-03-01T15:21:53;5.50;;;3.00;;
68870;SDS011;55906;52.278;6.808;2023-03-01T15:24:20;5.40;;;2.78;;
68870;SDS011;55906;52.278;6.808;2023-03-01T15:26:52;6.23;;;2.73;;
68870;SDS011;55906;52.278;6.808;2023-03-01T15:29:23;5.70;;;3.38;;